Castleton, Vermont
Current Conditions -  °F | °C
As of 8:15 PM on Friday 28 Nov 2014 (Local Time) from KRUT Reporting Station
Clear Clear  
Wind Chill: 10°   Ceiling: Unl
Heat Index: 21°   Visibility: 10mi
Dew Point: 10°   Wind: 10mph
Humidity: 63%   Direction: 250°WSW
Pressure: 30.15"   Gusts: NA
Location:  43.61°N, 73.18°W
Report Text: KRUT 290115Z 25009KT 10SM CLR M06/M12 A3015 RMK AO1
Loading
Personal Weather Stations






























Interactive Weather Map New forecast layout! Learn more

10-Day Weather Forecast

Advertisements
Track Severe Weather on mobile